CTN3250 LDPL-LDDU
Flight info
| Callsign | CTN3250 |
|---|---|
| Flight time | N/A |
| Altitude | 20000 |
| Route | LOS1R LOS Y88 SPL L607 NERRA |
| Aircraft | A20N/M-SDE2E3FGHIJ1RWXY/LB1 |
Departure
| Time | 2026-04-29 14:00 |
|---|---|
| Airport | Pula Airport (LDPL) |
Arrival
| Time | N/A |
|---|---|
| Airport | Dubrovnik Ruđer Bošković Airport (LDDU) |
| Time | Latitude | Longitude | Altitude | Speed | Heading |
|---|---|---|---|---|---|
| 2026-04-29 13:35 | 44.89717 | 13.92516 | 240 ft | 0 kts | 50° |
| 2026-04-29 13:50 | 44.89720 | 13.92520 | 240 ft | 2 kts | 47° |
| 2026-04-29 13:50 | 44.89736 | 13.92519 | 240 ft | 3 kts | 329° |
| 2026-04-29 13:50 | 44.89722 | 13.92480 | 239 ft | 9 kts | 226° |
| 2026-04-29 13:50 | 44.89637 | 13.92455 | 238 ft | 17 kts | 179° |
| 2026-04-29 13:51 | 44.89575 | 13.92322 | 234 ft | 22 kts | 268° |
| 2026-04-29 13:51 | 44.89568 | 13.92075 | 227 ft | 28 kts | 268° |
| 2026-04-29 13:51 | 44.89563 | 13.91774 | 219 ft | 33 kts | 269° |
| 2026-04-29 13:51 | 44.89558 | 13.91453 | 210 ft | 37 kts | 269° |
| 2026-04-29 13:52 | 44.89553 | 13.91079 | 199 ft | 40 kts | 267° |
| 2026-04-29 13:52 | 44.89540 | 13.90680 | 198 ft | 37 kts | 267° |
| 2026-04-29 13:52 | 44.89421 | 13.90447 | 181 ft | 13 kts | 229° |
| 2026-04-29 13:52 | 44.89416 | 13.90437 | 181 ft | 0 kts | 229° |
| 2026-04-29 13:58 | 44.89415 | 13.90437 | 181 ft | 0 kts | 229° |
| 2026-04-29 13:58 | 44.89397 | 13.90408 | 180 ft | 9 kts | 228° |
| 2026-04-29 13:59 | 44.89321 | 13.90378 | 179 ft | 1 kts | 139° |
| 2026-04-29 13:59 | 44.89314 | 13.90429 | 179 ft | 9 kts | 87° |
| 2026-04-29 13:59 | 44.89309 | 13.90537 | 181 ft | 29 kts | 88° |
| 2026-04-29 13:59 | 44.89333 | 13.91196 | 207 ft | 102 kts | 87° |
| 2026-04-29 14:00 | 44.89365 | 13.92443 | 414 ft | 138 kts | 88° |
| 2026-04-29 14:00 | 44.89388 | 13.93851 | 952 ft | 155 kts | 86° |
| 2026-04-29 14:00 | 44.89421 | 13.95463 | 1506 ft | 174 kts | 86° |
| 2026-04-29 14:00 | 44.89459 | 13.97226 | 2158 ft | 191 kts | 86° |
| 2026-04-29 14:01 | 44.89506 | 13.99196 | 2881 ft | 212 kts | 88° |
| 2026-04-29 14:01 | 44.89553 | 14.01413 | 3355 ft | 239 kts | 91° |
| 2026-04-29 14:01 | 44.89188 | 14.03780 | 3920 ft | 257 kts | 119° |
| 2026-04-29 14:01 | 44.87998 | 14.05749 | 4520 ft | 276 kts | 145° |
| 2026-04-29 14:02 | 44.86240 | 14.07081 | 5061 ft | 297 kts | 156° |
| 2026-04-29 14:02 | 44.84335 | 14.08445 | 5491 ft | 323 kts | 152° |
| 2026-04-29 14:02 | 44.82414 | 14.10198 | 5878 ft | 347 kts | 146° |
| 2026-04-29 14:02 | 44.80399 | 14.12427 | 6211 ft | 372 kts | 142° |
| 2026-04-29 14:03 | 44.78415 | 14.14861 | 6703 ft | 384 kts | 140° |
| 2026-04-29 14:03 | 44.76424 | 14.17396 | 6995 ft | 385 kts | 140° |
| 2026-04-29 14:03 | 44.74464 | 14.19906 | 7074 ft | 385 kts | 139° |
| 2026-04-29 14:03 | 44.72472 | 14.22449 | 7075 ft | 386 kts | 140° |
| 2026-04-29 14:04 | 44.70474 | 14.24987 | 7075 ft | 386 kts | 140° |
| 2026-04-29 14:04 | 44.68478 | 14.27510 | 7074 ft | 384 kts | 140° |
| 2026-04-29 14:04 | 44.66510 | 14.29989 | 7067 ft | 384 kts | 140° |
| 2026-04-29 14:04 | 44.64518 | 14.32491 | 7100 ft | 386 kts | 140° |
| 2026-04-29 14:05 | 44.62496 | 14.35028 | 7641 ft | 389 kts | 140° |
| 2026-04-29 14:05 | 44.60468 | 14.37574 | 8430 ft | 392 kts | 140° |
| 2026-04-29 14:05 | 44.58447 | 14.40110 | 9148 ft | 396 kts | 140° |
| 2026-04-29 14:05 | 44.56351 | 14.42735 | 9901 ft | 401 kts | 140° |
| 2026-04-29 14:06 | 44.54287 | 14.45317 | 10504 ft | 406 kts | 140° |
| 2026-04-29 14:06 | 44.52160 | 14.47974 | 11125 ft | 411 kts | 140° |
| 2026-04-29 14:06 | 44.49965 | 14.50636 | 11762 ft | 417 kts | 141° |
| 2026-04-29 14:06 | 44.47760 | 14.53253 | 12399 ft | 422 kts | 142° |
| 2026-04-29 14:07 | 44.45498 | 14.55924 | 13002 ft | 427 kts | 142° |
| 2026-04-29 14:07 | 44.43201 | 14.58641 | 13589 ft | 433 kts | 142° |
| 2026-04-29 14:07 | 44.40882 | 14.61391 | 14127 ft | 438 kts | 142° |
| 2026-04-29 14:07 | 44.38570 | 14.64136 | 14670 ft | 441 kts | 142° |
| 2026-04-29 14:08 | 44.36206 | 14.66941 | 15205 ft | 445 kts | 142° |
| 2026-04-29 14:08 | 44.33830 | 14.69759 | 15718 ft | 450 kts | 142° |
| 2026-04-29 14:08 | 44.31464 | 14.72562 | 16245 ft | 453 kts | 142° |
| 2026-04-29 14:08 | 44.29044 | 14.75427 | 16771 ft | 457 kts | 142° |
| 2026-04-29 14:09 | 44.26602 | 14.78318 | 17286 ft | 461 kts | 142° |
| 2026-04-29 14:09 | 44.24140 | 14.81227 | 17809 ft | 466 kts | 142° |
| 2026-04-29 14:09 | 44.21657 | 14.84156 | 18321 ft | 469 kts | 142° |
| 2026-04-29 14:09 | 44.19178 | 14.87077 | 18774 ft | 472 kts | 142° |
| 2026-04-29 14:10 | 44.16655 | 14.90047 | 19225 ft | 475 kts | 142° |
| 2026-04-29 14:10 | 44.14119 | 14.93029 | 19679 ft | 478 kts | 142° |
| 2026-04-29 14:10 | 44.11558 | 14.96037 | 19961 ft | 481 kts | 142° |
| 2026-04-29 14:10 | 44.09867 | 14.98020 | 20026 ft | 481 kts | 142° |